Terminal Aerodrome Forecast
Issued by NWS Mt. Holly, NJ

Home | Current Version | Previous Version | Text Only | Print | Product List | Glossary On
Versions: 1 2 3 4 5 6 7 8 9 10 11 12 13 14 15 16 17 18 19 20 21 22 23 24 25 26 27 28 29 30 31 32 33 34 35 36 37 38 39 40 41 42 43 44 45 46 47
000
FTUS41 KPHI 201800 AAA
TAFABE
TAF AMD
KABE 201802Z 2018/2118 18010G18KT P6SM SCT040
     FM210000 18005KT P6SM BKN040
     FM210600 VRB02KT 4SM BR BKN025
     FM211000 VRB02KT 2SM BR BKN012
     FM211500 21005KT P6SM SCT025 BKN100=

USA.gov is the U.S. government's official web portal to all federal, state and local government web resources and services.